Terminal Aerodrome Forecast
Issued by NWS

Home | Current Version | Previous Version | Text Only | Print | Product List | Glossary On
Versions: 1 2 3 4 5 6 7 8 9 10 11 12 13 14 15 16 17 18 19 20 21 22 23 24 25 26 27 28 29 30 31 32 33 34 35 36 37 38 39 40 41 42
000
FTUS46 KOTX 270526
TAFSFF
TAF
KSFF 270526Z 2706/2806 VRB02KT P6SM SCT200
     FM271200 07002KT P6SM SCT100 BKN120
     FM271900 16003KT P6SM SCT080 BKN120
     FM280100 VRB02KT P6SM FEW100=

USA.gov is the U.S. government's official web portal to all federal, state and local government web resources and services.